sensor_id;sensor_type;location;lat;lon;timestamp;temperature;humidity
23991;DHT22;12205;50.600;4.608;2022-09-03T00:02:30;21.00;99.90
23991;DHT22;12205;50.600;4.608;2022-09-03T00:05:07;21.00;99.90
23991;DHT22;12205;50.600;4.608;2022-09-03T00:07:45;21.00;99.90
23991;DHT22;12205;50.600;4.608;2022-09-03T00:10:22;21.00;99.90
23991;DHT22;12205;50.600;4.608;2022-09-03T00:12:57;20.90;99.90
23991;DHT22;12205;50.600;4.608;2022-09-03T00:15:29;21.00;99.90
23991;DHT22;12205;50.600;4.608;2022-09-03T00:18:03;21.00;99.90
23991;DHT22;12205;50.600;4.608;2022-09-03T00:20:38;20.90;99.90
23991;DHT22;12205;50.600;4.608;2022-09-03T00:23:13;20.90;99.90
23991;DHT22;12205;50.600;4.608;2022-09-03T00:25:52;20.90;99.90
23991;DHT22;12205;50.600;4.608;2022-09-03T00:28:27;20.90;99.90
23991;DHT22;12205;50.600;4.608;2022-09-03T00:31:06;21.00;99.90
23991;DHT22;12205;50.600;4.608;2022-09-03T00:33:39;20.90;99.90
23991;DHT22;12205;50.600;4.608;2022-09-03T00:36:14;20.90;99.90
23991;DHT22;12205;50.600;4.608;2022-09-03T00:38:46;20.90;99.90
23991;DHT22;12205;50.600;4.608;2022-09-03T00:41:21;21.00;99.90
23991;DHT22;12205;50.600;4.608;2022-09-03T00:47:06;21.00;99.90
23991;DHT22;12205;50.600;4.608;2022-09-03T00:49:46;21.00;99.90
23991;DHT22;12205;50.600;4.608;2022-09-03T00:52:33;21.00;99.90
23991;DHT22;12205;50.600;4.608;2022-09-03T00:55:21;21.10;99.90
23991;DHT22;12205;50.600;4.608;2022-09-03T00:58:20;21.10;99.90
23991;DHT22;12205;50.600;4.608;2022-09-03T01:01:13;21.10;99.90
23991;DHT22;12205;50.600;4.608;2022-09-03T01:03:50;21.00;99.90
23991;DHT22;12205;50.600;4.608;2022-09-03T01:06:31;21.10;99.90
23991;DHT22;12205;50.600;4.608;2022-09-03T01:09:29;21.10;99.90
23991;DHT22;12205;50.600;4.608;2022-09-03T01:12:11;21.10;99.90
23991;DHT22;12205;50.600;4.608;2022-09-03T01:14:54;21.00;99.90
23991;DHT22;12205;50.600;4.608;2022-09-03T01:17:39;21.00;99.90
23991;DHT22;12205;50.600;4.608;2022-09-03T01:20:45;21.00;99.90
23991;DHT22;12205;50.600;4.608;2022-09-03T01:23:55;21.00;99.90
23991;DHT22;12205;50.600;4.608;2022-09-03T01:26:54;21.00;99.90
23991;DHT22;12205;50.600;4.608;2022-09-03T01:29:38;20.90;99.90
23991;DHT22;12205;50.600;4.608;2022-09-03T01:32:15;20.90;99.90
23991;DHT22;12205;50.600;4.608;2022-09-03T01:34:55;20.90;99.90
23991;DHT22;12205;50.600;4.608;2022-09-03T01:37:38;20.80;99.90
23991;DHT22;12205;50.600;4.608;2022-09-03T01:40:21;20.90;99.90
23991;DHT22;12205;50.600;4.608;2022-09-03T01:43:03;20.90;99.90
23991;DHT22;12205;50.600;4.608;2022-09-03T01:45:53;20.90;99.90
23991;DHT22;12205;50.600;4.608;2022-09-03T01:48:36;20.80;99.90
23991;DHT22;12205;50.600;4.608;2022-09-03T01:51:17;20.80;99.90
23991;DHT22;12205;50.600;4.608;2022-09-03T01:57:30;20.80;99.90
23991;DHT22;12205;50.600;4.608;2022-09-03T02:00:07;20.80;99.90
23991;DHT22;12205;50.600;4.608;2022-09-03T02:02:40;20.80;99.90
23991;DHT22;12205;50.600;4.608;2022-09-03T02:05:13;20.90;99.90
23991;DHT22;12205;50.600;4.608;2022-09-03T02:07:45;20.80;99.90
23991;DHT22;12205;50.600;4.608;2022-09-03T02:10:21;20.80;99.90
23991;DHT22;12205;50.600;4.608;2022-09-03T02:12:59;20.80;99.90
23991;DHT22;12205;50.600;4.608;2022-09-03T02:15:30;20.70;99.90
23991;DHT22;12205;50.600;4.608;2022-09-03T02:18:04;20.70;99.90
23991;DHT22;12205;50.600;4.608;2022-09-03T02:20:36;20.70;99.90
23991;DHT22;12205;50.600;4.608;2022-09-03T02:23:04;20.60;99.90
23991;DHT22;12205;50.600;4.608;2022-09-03T02:25:34;20.50;99.90
23991;DHT22;12205;50.600;4.608;2022-09-03T02:28:04;20.40;99.90
23991;DHT22;12205;50.600;4.608;2022-09-03T02:30:33;20.30;99.90
23991;DHT22;12205;50.600;4.608;2022-09-03T02:33:01;20.20;99.90
23991;DHT22;12205;50.600;4.608;2022-09-03T02:35:29;20.10;99.90
23991;DHT22;12205;50.600;4.608;2022-09-03T02:37:56;20.10;99.90
23991;DHT22;12205;50.600;4.608;2022-09-03T02:40:23;19.90;99.90
23991;DHT22;12205;50.600;4.608;2022-09-03T02:42:51;19.80;99.90
23991;DHT22;12205;50.600;4.608;2022-09-03T02:45:26;19.80;99.90
23991;DHT22;12205;50.600;4.608;2022-09-03T02:47:58;19.70;99.90
23991;DHT22;12205;50.600;4.608;2022-09-03T02:50:27;19.60;99.90
23991;DHT22;12205;50.600;4.608;2022-09-03T02:52:54;19.60;99.90
23991;DHT22;12205;50.600;4.608;2022-09-03T02:55:21;19.60;99.90
23991;DHT22;12205;50.600;4.608;2022-09-03T02:57:48;19.60;99.90
23991;DHT22;12205;50.600;4.608;2022-09-03T03:00:16;19.60;99.90
23991;DHT22;12205;50.600;4.608;2022-09-03T03:02:45;19.60;99.90
23991;DHT22;12205;50.600;4.608;2022-09-03T03:05:19;19.60;99.90
23991;DHT22;12205;50.600;4.608;2022-09-03T03:07:54;19.50;99.90
23991;DHT22;12205;50.600;4.608;2022-09-03T03:10:23;19.50;99.90
23991;DHT22;12205;50.600;4.608;2022-09-03T03:12:50;19.50;99.90
23991;DHT22;12205;50.600;4.608;2022-09-03T03:15:17;19.50;99.90
23991;DHT22;12205;50.600;4.608;2022-09-03T03:17:44;19.30;99.90
23991;DHT22;12205;50.600;4.608;2022-09-03T03:20:12;19.20;99.90
23991;DHT22;12205;50.600;4.608;2022-09-03T03:22:39;19.10;99.90
23991;DHT22;12205;50.600;4.608;2022-09-03T03:25:08;19.10;99.90
23991;DHT22;12205;50.600;4.608;2022-09-03T03:27:35;19.00;99.90
23991;DHT22;12205;50.600;4.608;2022-09-03T03:30:08;18.90;99.90
23991;DHT22;12205;50.600;4.608;2022-09-03T03:32:37;18.90;99.90
23991;DHT22;12205;50.600;4.608;2022-09-03T03:35:06;18.90;99.90
23991;DHT22;12205;50.600;4.608;2022-09-03T03:37:33;18.80;99.90
23991;DHT22;12205;50.600;4.608;2022-09-03T03:40:01;18.80;99.90
23991;DHT22;12205;50.600;4.608;2022-09-03T03:42:33;18.80;99.90
23991;DHT22;12205;50.600;4.608;2022-09-03T03:45:00;18.80;99.90
23991;DHT22;12205;50.600;4.608;2022-09-03T03:47:28;18.80;99.90
23991;DHT22;12205;50.600;4.608;2022-09-03T03:49:55;18.80;99.90
23991;DHT22;12205;50.600;4.608;2022-09-03T03:52:24;18.80;99.90
23991;DHT22;12205;50.600;4.608;2022-09-03T03:54:52;18.80;99.90
23991;DHT22;12205;50.600;4.608;2022-09-03T03:57:20;18.80;99.90
23991;DHT22;12205;50.600;4.608;2022-09-03T03:59:49;18.80;99.90
23991;DHT22;12205;50.600;4.608;2022-09-03T04:02:17;18.80;99.90
23991;DHT22;12205;50.600;4.608;2022-09-03T04:04:44;18.70;99.90
23991;DHT22;12205;50.600;4.608;2022-09-03T04:07:11;18.70;99.90
23991;DHT22;12205;50.600;4.608;2022-09-03T04:09:38;18.70;99.90
23991;DHT22;12205;50.600;4.608;2022-09-03T04:12:06;18.70;99.90
23991;DHT22;12205;50.600;4.608;2022-09-03T04:14:34;18.70;99.90
23991;DHT22;12205;50.600;4.608;2022-09-03T04:17:02;18.60;99.90
23991;DHT22;12205;50.600;4.608;2022-09-03T04:19:29;18.60;99.90
23991;DHT22;12205;50.600;4.608;2022-09-03T04:21:57;18.60;99.90
23991;DHT22;12205;50.600;4.608;2022-09-03T04:24:24;18.70;99.90
23991;DHT22;12205;50.600;4.608;2022-09-03T04:26:52;18.60;99.90
23991;DHT22;12205;50.600;4.608;2022-09-03T04:29:19;18.60;99.90
23991;DHT22;12205;50.600;4.608;2022-09-03T04:31:47;18.60;99.90
23991;DHT22;12205;50.600;4.608;2022-09-03T04:34:30;18.60;99.90
23991;DHT22;12205;50.600;4.608;2022-09-03T04:36:57;18.60;99.90
23991;DHT22;12205;50.600;4.608;2022-09-03T04:39:24;18.60;99.90
23991;DHT22;12205;50.600;4.608;2022-09-03T04:41:51;18.60;99.90
23991;DHT22;12205;50.600;4.608;2022-09-03T04:44:19;18.50;99.90
23991;DHT22;12205;50.600;4.608;2022-09-03T04:46:46;18.50;99.90
23991;DHT22;12205;50.600;4.608;2022-09-03T04:49:14;18.50;99.90
23991;DHT22;12205;50.600;4.608;2022-09-03T04:51:42;18.50;99.90
23991;DHT22;12205;50.600;4.608;2022-09-03T04:54:09;18.50;99.90
23991;DHT22;12205;50.600;4.608;2022-09-03T04:56:38;18.50;99.90
23991;DHT22;12205;50.600;4.608;2022-09-03T04:59:07;18.50;99.90
23991;DHT22;12205;50.600;4.608;2022-09-03T05:01:36;18.50;99.90
23991;DHT22;12205;50.600;4.608;2022-09-03T05:04:05;18.50;99.90
23991;DHT22;12205;50.600;4.608;2022-09-03T05:06:34;18.50;99.90
23991;DHT22;12205;50.600;4.608;2022-09-03T05:09:04;18.50;99.90
23991;DHT22;12205;50.600;4.608;2022-09-03T05:11:32;18.40;99.90
23991;DHT22;12205;50.600;4.608;2022-09-03T05:13:59;18.40;99.90
23991;DHT22;12205;50.600;4.608;2022-09-03T05:16:27;18.40;99.90
23991;DHT22;12205;50.600;4.608;2022-09-03T05:18:57;18.50;99.90
23991;DHT22;12205;50.600;4.608;2022-09-03T05:21:26;18.50;99.90
23991;DHT22;12205;50.600;4.608;2022-09-03T05:23:55;18.50;99.90
23991;DHT22;12205;50.600;4.608;2022-09-03T05:26:25;18.50;99.90
23991;DHT22;12205;50.600;4.608;2022-09-03T05:28:55;18.50;99.90
23991;DHT22;12205;50.600;4.608;2022-09-03T05:31:25;18.50;99.90
23991;DHT22;12205;50.600;4.608;2022-09-03T05:33:55;18.50;99.90
23991;DHT22;12205;50.600;4.608;2022-09-03T05:36:27;18.50;99.90
23991;DHT22;12205;50.600;4.608;2022-09-03T05:38:56;18.50;99.90
23991;DHT22;12205;50.600;4.608;2022-09-03T05:41:26;18.50;99.90
23991;DHT22;12205;50.600;4.608;2022-09-03T05:43:55;18.50;99.90
23991;DHT22;12205;50.600;4.608;2022-09-03T05:46:25;18.60;99.90
23991;DHT22;12205;50.600;4.608;2022-09-03T05:48:56;18.60;99.90
23991;DHT22;12205;50.600;4.608;2022-09-03T05:51:24;18.60;99.90
23991;DHT22;12205;50.600;4.608;2022-09-03T05:53:52;18.60;99.90
23991;DHT22;12205;50.600;4.608;2022-09-03T05:56:21;18.70;99.90
23991;DHT22;12205;50.600;4.608;2022-09-03T05:58:53;18.70;99.90
23991;DHT22;12205;50.600;4.608;2022-09-03T06:01:24;18.70;99.90
23991;DHT22;12205;50.600;4.608;2022-09-03T06:03:55;18.80;99.90
23991;DHT22;12205;50.600;4.608;2022-09-03T06:06:23;18.80;99.90
23991;DHT22;12205;50.600;4.608;2022-09-03T06:08:52;18.80;99.90
23991;DHT22;12205;50.600;4.608;2022-09-03T06:11:21;18.80;99.90
23991;DHT22;12205;50.600;4.608;2022-09-03T06:13:56;18.90;99.90
23991;DHT22;12205;50.600;4.608;2022-09-03T06:16:26;18.90;99.90
23991;DHT22;12205;50.600;4.608;2022-09-03T06:18:54;18.90;99.90
23991;DHT22;12205;50.600;4.608;2022-09-03T06:21:22;18.90;99.90
23991;DHT22;12205;50.600;4.608;2022-09-03T06:23:49;19.00;99.90
23991;DHT22;12205;50.600;4.608;2022-09-03T06:26:18;19.10;99.90
23991;DHT22;12205;50.600;4.608;2022-09-03T06:28:46;19.10;99.90
23991;DHT22;12205;50.600;4.608;2022-09-03T06:31:18;19.20;99.90
23991;DHT22;12205;50.600;4.608;2022-09-03T06:33:46;19.30;99.90
23991;DHT22;12205;50.600;4.608;2022-09-03T06:36:15;19.30;99.90
23991;DHT22;12205;50.600;4.608;2022-09-03T06:38:44;19.40;99.90
23991;DHT22;12205;50.600;4.608;2022-09-03T06:41:13;19.40;99.90
23991;DHT22;12205;50.600;4.608;2022-09-03T06:43:43;19.50;99.90
23991;DHT22;12205;50.600;4.608;2022-09-03T06:46:12;19.50;99.90
23991;DHT22;12205;50.600;4.608;2022-09-03T06:48:42;19.60;99.90
23991;DHT22;12205;50.600;4.608;2022-09-03T06:51:13;19.70;99.90
23991;DHT22;12205;50.600;4.608;2022-09-03T06:53:43;19.70;99.90
23991;DHT22;12205;50.600;4.608;2022-09-03T06:56:13;19.80;99.90
23991;DHT22;12205;50.600;4.608;2022-09-03T06:58:44;19.90;99.90
23991;DHT22;12205;50.600;4.608;2022-09-03T07:01:17;19.90;99.90
23991;DHT22;12205;50.600;4.608;2022-09-03T07:03:47;20.00;99.90
23991;DHT22;12205;50.600;4.608;2022-09-03T07:06:21;20.10;99.90
23991;DHT22;12205;50.600;4.608;2022-09-03T07:08:49;20.10;99.90
23991;DHT22;12205;50.600;4.608;2022-09-03T07:11:19;20.20;99.90
23991;DHT22;12205;50.600;4.608;2022-09-03T07:13:52;20.30;99.90
23991;DHT22;12205;50.600;4.608;2022-09-03T07:16:23;20.30;99.90
23991;DHT22;12205;50.600;4.608;2022-09-03T07:18:53;20.40;99.90
23991;DHT22;12205;50.600;4.608;2022-09-03T07:21:22;20.50;99.90
23991;DHT22;12205;50.600;4.608;2022-09-03T07:23:52;20.60;99.90
23991;DHT22;12205;50.600;4.608;2022-09-03T07:26:22;20.70;99.90
23991;DHT22;12205;50.600;4.608;2022-09-03T07:28:51;20.80;99.90
23991;DHT22;12205;50.600;4.608;2022-09-03T07:31:24;20.90;99.90
23991;DHT22;12205;50.600;4.608;2022-09-03T07:34:06;21.00;99.90
23991;DHT22;12205;50.600;4.608;2022-09-03T07:36:36;21.00;99.90
23991;DHT22;12205;50.600;4.608;2022-09-03T07:39:06;21.20;99.90
23991;DHT22;12205;50.600;4.608;2022-09-03T07:41:33;21.30;99.90
23991;DHT22;12205;50.600;4.608;2022-09-03T07:44:01;21.30;99.90
23991;DHT22;12205;50.600;4.608;2022-09-03T07:46:35;21.30;99.90
23991;DHT22;12205;50.600;4.608;2022-09-03T07:49:05;21.40;99.90
23991;DHT22;12205;50.600;4.608;2022-09-03T07:51:35;21.40;99.90
23991;DHT22;12205;50.600;4.608;2022-09-03T07:54:06;21.40;99.90
23991;DHT22;12205;50.600;4.608;2022-09-03T07:56:36;21.60;99.90
23991;DHT22;12205;50.600;4.608;2022-09-03T07:59:05;21.70;99.90
23991;DHT22;12205;50.600;4.608;2022-09-03T08:01:35;21.80;99.90
23991;DHT22;12205;50.600;4.608;2022-09-03T08:04:05;21.80;99.90
23991;DHT22;12205;50.600;4.608;2022-09-03T08:06:33;21.90;99.90
23991;DHT22;12205;50.600;4.608;2022-09-03T08:09:02;21.90;99.90
23991;DHT22;12205;50.600;4.608;2022-09-03T08:11:31;21.80;99.90
23991;DHT22;12205;50.600;4.608;2022-09-03T08:14:01;21.90;99.90
23991;DHT22;12205;50.600;4.608;2022-09-03T08:16:32;21.90;99.90
23991;DHT22;12205;50.600;4.608;2022-09-03T08:19:06;22.00;99.90
23991;DHT22;12205;50.600;4.608;2022-09-03T08:21:34;22.10;99.90
23991;DHT22;12205;50.600;4.608;2022-09-03T08:24:02;22.10;99.90
23991;DHT22;12205;50.600;4.608;2022-09-03T08:26:32;22.10;99.90
23991;DHT22;12205;50.600;4.608;2022-09-03T08:29:25;22.10;99.90
23991;DHT22;12205;50.600;4.608;2022-09-03T08:32:17;22.20;99.90
23991;DHT22;12205;50.600;4.608;2022-09-03T08:35:10;22.20;99.90
23991;DHT22;12205;50.600;4.608;2022-09-03T08:37:39;22.10;99.90
23991;DHT22;12205;50.600;4.608;2022-09-03T08:40:10;22.20;99.90
23991;DHT22;12205;50.600;4.608;2022-09-03T08:45:47;22.30;99.90
23991;DHT22;12205;50.600;4.608;2022-09-03T08:48:20;22.30;99.90
23991;DHT22;12205;50.600;4.608;2022-09-03T08:50:55;22.40;99.90
23991;DHT22;12205;50.600;4.608;2022-09-03T08:53:43;22.50;99.90
23991;DHT22;12205;50.600;4.608;2022-09-03T08:56:52;22.50;99.90
23991;DHT22;12205;50.600;4.608;2022-09-03T08:59:37;22.70;99.90
23991;DHT22;12205;50.600;4.608;2022-09-03T09:02:22;22.80;99.90
23991;DHT22;12205;50.600;4.608;2022-09-03T09:05:11;22.90;99.90
23991;DHT22;12205;50.600;4.608;2022-09-03T09:11:32;23.20;99.90
23991;DHT22;12205;50.600;4.608;2022-09-03T09:15:06;23.30;99.90
23991;DHT22;12205;50.600;4.608;2022-09-03T09:18:37;23.50;99.90
23991;DHT22;12205;50.600;4.608;2022-09-03T09:21:17;23.60;99.90
23991;DHT22;12205;50.600;4.608;2022-09-03T09:24:01;23.80;99.90
23991;DHT22;12205;50.600;4.608;2022-09-03T09:26:36;24.00;99.90
23991;DHT22;12205;50.600;4.608;2022-09-03T09:29:08;24.10;99.90
23991;DHT22;12205;50.600;4.608;2022-09-03T09:31:38;24.20;99.90
23991;DHT22;12205;50.600;4.608;2022-09-03T09:34:07;24.40;99.90
23991;DHT22;12205;50.600;4.608;2022-09-03T09:36:41;24.50;99.90
23991;DHT22;12205;50.600;4.608;2022-09-03T09:39:12;24.70;99.90
23991;DHT22;12205;50.600;4.608;2022-09-03T09:41:41;24.90;99.90
23991;DHT22;12205;50.600;4.608;2022-09-03T09:44:25;25.00;99.90
23991;DHT22;12205;50.600;4.608;2022-09-03T09:47:06;25.20;99.90
23991;DHT22;12205;50.600;4.608;2022-09-03T09:49:51;25.30;99.90
23991;DHT22;12205;50.600;4.608;2022-09-03T09:52:22;25.50;99.90
23991;DHT22;12205;50.600;4.608;2022-09-03T09:54:51;25.60;99.90
23991;DHT22;12205;50.600;4.608;2022-09-03T09:57:24;25.60;99.90
23991;DHT22;12205;50.600;4.608;2022-09-03T10:00:08;25.50;99.90
23991;DHT22;12205;50.600;4.608;2022-09-03T10:02:38;25.60;99.90
23991;DHT22;12205;50.600;4.608;2022-09-03T10:05:17;25.40;99.90
23991;DHT22;12205;50.600;4.608;2022-09-03T10:07:58;25.50;99.90
23991;DHT22;12205;50.600;4.608;2022-09-03T10:10:27;25.70;99.90
23991;DHT22;12205;50.600;4.608;2022-09-03T10:13:00;25.70;99.90
23991;DHT22;12205;50.600;4.608;2022-09-03T10:15:39;25.60;99.90
23991;DHT22;12205;50.600;4.608;2022-09-03T10:18:45;25.80;99.90
23991;DHT22;12205;50.600;4.608;2022-09-03T10:21:40;25.90;99.90
23991;DHT22;12205;50.600;4.608;2022-09-03T10:24:27;25.90;99.90
23991;DHT22;12205;50.600;4.608;2022-09-03T10:27:06;26.00;99.90
23991;DHT22;12205;50.600;4.608;2022-09-03T10:29:45;26.10;99.90
23991;DHT22;12205;50.600;4.608;2022-09-03T10:32:31;26.40;99.90
23991;DHT22;12205;50.600;4.608;2022-09-03T10:35:17;26.40;99.90
23991;DHT22;12205;50.600;4.608;2022-09-03T10:38:08;26.60;99.90
23991;DHT22;12205;50.600;4.608;2022-09-03T10:40:50;26.90;99.90
23991;DHT22;12205;50.600;4.608;2022-09-03T10:43:37;27.10;99.90
23991;DHT22;12205;50.600;4.608;2022-09-03T10:46:21;27.30;99.90
23991;DHT22;12205;50.600;4.608;2022-09-03T10:49:09;27.60;99.90
23991;DHT22;12205;50.600;4.608;2022-09-03T10:51:54;27.40;99.90
23991;DHT22;12205;50.600;4.608;2022-09-03T10:54:54;27.60;99.90
23991;DHT22;12205;50.600;4.608;2022-09-03T10:57:44;27.80;99.90
23991;DHT22;12205;50.600;4.608;2022-09-03T11:00:45;27.90;99.90
23991;DHT22;12205;50.600;4.608;2022-09-03T11:03:46;28.00;99.90
23991;DHT22;12205;50.600;4.608;2022-09-03T11:06:27;27.90;99.90
23991;DHT22;12205;50.600;4.608;2022-09-03T11:09:04;27.90;99.90
23991;DHT22;12205;50.600;4.608;2022-09-03T11:11:51;27.70;99.90
23991;DHT22;12205;50.600;4.608;2022-09-03T11:14:30;27.50;99.90
23991;DHT22;12205;50.600;4.608;2022-09-03T11:17:08;27.40;99.90
23991;DHT22;12205;50.600;4.608;2022-09-03T11:19:45;27.40;99.90
23991;DHT22;12205;50.600;4.608;2022-09-03T11:22:16;27.40;99.90
23991;DHT22;12205;50.600;4.608;2022-09-03T11:24:50;27.50;99.90
23991;DHT22;12205;50.600;4.608;2022-09-03T11:27:34;27.50;99.90
23991;DHT22;12205;50.600;4.608;2022-09-03T11:30:44;27.60;99.90
23991;DHT22;12205;50.600;4.608;2022-09-03T11:33:24;27.50;99.90
23991;DHT22;12205;50.600;4.608;2022-09-03T11:36:01;27.50;99.90
23991;DHT22;12205;50.600;4.608;2022-09-03T11:38:35;27.50;99.90
23991;DHT22;12205;50.600;4.608;2022-09-03T11:41:11;27.20;99.90
23991;DHT22;12205;50.600;4.608;2022-09-03T11:43:43;27.20;99.90
23991;DHT22;12205;50.600;4.608;2022-09-03T11:46:28;27.10;99.90
23991;DHT22;12205;50.600;4.608;2022-09-03T11:49:09;27.10;99.90
23991;DHT22;12205;50.600;4.608;2022-09-03T11:52:00;27.20;99.90
23991;DHT22;12205;50.600;4.608;2022-09-03T11:54:42;27.00;99.90
23991;DHT22;12205;50.600;4.608;2022-09-03T11:57:13;27.20;99.90
23991;DHT22;12205;50.600;4.608;2022-09-03T11:59:47;27.30;99.90
23991;DHT22;12205;50.600;4.608;2022-09-03T12:02:29;27.30;99.90
23991;DHT22;12205;50.600;4.608;2022-09-03T12:05:12;27.30;99.90
23991;DHT22;12205;50.600;4.608;2022-09-03T12:08:25;27.40;99.90
23991;DHT22;12205;50.600;4.608;2022-09-03T12:11:37;27.40;99.90
23991;DHT22;12205;50.600;4.608;2022-09-03T12:14:19;27.50;99.90
23991;DHT22;12205;50.600;4.608;2022-09-03T12:17:03;27.70;99.90
23991;DHT22;12205;50.600;4.608;2022-09-03T12:19:49;27.90;99.90
23991;DHT22;12205;50.600;4.608;2022-09-03T12:22:20;28.40;99.90
23991;DHT22;12205;50.600;4.608;2022-09-03T12:24:49;29.00;99.90
23991;DHT22;12205;50.600;4.608;2022-09-03T12:27:22;29.40;99.90
23991;DHT22;12205;50.600;4.608;2022-09-03T12:29:55;30.00;99.90
23991;DHT22;12205;50.600;4.608;2022-09-03T12:32:27;30.30;99.90
23991;DHT22;12205;50.600;4.608;2022-09-03T12:35:10;30.30;99.90
23991;DHT22;12205;50.600;4.608;2022-09-03T12:37:41;30.30;99.90
23991;DHT22;12205;50.600;4.608;2022-09-03T12:40:19;30.40;99.90
23991;DHT22;12205;50.600;4.608;2022-09-03T12:42:48;30.30;99.90
23991;DHT22;12205;50.600;4.608;2022-09-03T12:45:24;30.40;99.90
23991;DHT22;12205;50.600;4.608;2022-09-03T12:47:57;30.50;99.90
23991;DHT22;12205;50.600;4.608;2022-09-03T12:50:26;30.60;99.90
23991;DHT22;12205;50.600;4.608;2022-09-03T12:52:56;30.70;99.90
23991;DHT22;12205;50.600;4.608;2022-09-03T12:55:28;30.70;99.90
23991;DHT22;12205;50.600;4.608;2022-09-03T12:58:06;30.90;99.90
23991;DHT22;12205;50.600;4.608;2022-09-03T13:00:40;31.30;99.90
23991;DHT22;12205;50.600;4.608;2022-09-03T13:03:23;32.20;99.90
23991;DHT22;12205;50.600;4.608;2022-09-03T13:06:01;33.20;99.90
23991;DHT22;12205;50.600;4.608;2022-09-03T13:08:36;33.90;99.90
23991;DHT22;12205;50.600;4.608;2022-09-03T13:11:14;34.40;99.90
23991;DHT22;12205;50.600;4.608;2022-09-03T13:13:52;34.20;99.90
23991;DHT22;12205;50.600;4.608;2022-09-03T13:16:38;34.40;98.00
23991;DHT22;12205;50.600;4.608;2022-09-03T13:19:25;34.70;97.00
23991;DHT22;12205;50.600;4.608;2022-09-03T13:22:08;36.00;94.90
23991;DHT22;12205;50.600;4.608;2022-09-03T13:24:55;37.30;92.90
23991;DHT22;12205;50.600;4.608;2022-09-03T13:27:43;36.90;90.80
23991;DHT22;12205;50.600;4.608;2022-09-03T13:30:20;37.20;91.20
23991;DHT22;12205;50.600;4.608;2022-09-03T13:32:55;38.60;89.40
23991;DHT22;12205;50.600;4.608;2022-09-03T13:35:32;39.40;83.00
23991;DHT22;12205;50.600;4.608;2022-09-03T13:38:13;38.50;80.40
23991;DHT22;12205;50.600;4.608;2022-09-03T13:40:54;37.50;80.30
23991;DHT22;12205;50.600;4.608;2022-09-03T13:43:29;36.60;80.70
23991;DHT22;12205;50.600;4.608;2022-09-03T13:46:05;35.70;81.20
23991;DHT22;12205;50.600;4.608;2022-09-03T13:48:37;35.10;83.00
23991;DHT22;12205;50.600;4.608;2022-09-03T13:51:25;35.50;86.00
23991;DHT22;12205;50.600;4.608;2022-09-03T13:54:04;36.40;84.00
23991;DHT22;12205;50.600;4.608;2022-09-03T13:56:52;35.90;82.80
23991;DHT22;12205;50.600;4.608;2022-09-03T13:59:28;35.30;84.60
23991;DHT22;12205;50.600;4.608;2022-09-03T14:02:19;34.90;86.40
23991;DHT22;12205;50.600;4.608;2022-09-03T14:05:00;34.60;85.80
23991;DHT22;12205;50.600;4.608;2022-09-03T14:07:47;34.60;86.60
23991;DHT22;12205;50.600;4.608;2022-09-03T14:13:30;34.70;86.00
23991;DHT22;12205;50.600;4.608;2022-09-03T14:16:09;34.80;86.80
23991;DHT22;12205;50.600;4.608;2022-09-03T14:18:48;35.30;82.90
23991;DHT22;12205;50.600;4.608;2022-09-03T14:21:23;36.20;80.70
23991;DHT22;12205;50.600;4.608;2022-09-03T14:24:00;35.80;78.10
23991;DHT22;12205;50.600;4.608;2022-09-03T14:26:35;35.30;79.20
23991;DHT22;12205;50.600;4.608;2022-09-03T14:29:07;34.80;81.80
23991;DHT22;12205;50.600;4.608;2022-09-03T14:35:04;33.80;83.40
23991;DHT22;12205;50.600;4.608;2022-09-03T14:41:04;33.00;87.10
23991;DHT22;12205;50.600;4.608;2022-09-03T14:43:54;32.70;88.30
23991;DHT22;12205;50.600;4.608;2022-09-03T14:46:53;32.40;89.20
23991;DHT22;12205;50.600;4.608;2022-09-03T14:49:51;32.10;89.50
23991;DHT22;12205;50.600;4.608;2022-09-03T14:56:09;32.00;90.60
23991;DHT22;12205;50.600;4.608;2022-09-03T14:58:54;32.30;90.80
23991;DHT22;12205;50.600;4.608;2022-09-03T15:01:32;32.10;90.30
23991;DHT22;12205;50.600;4.608;2022-09-03T15:04:35;32.40;87.10
23991;DHT22;12205;50.600;4.608;2022-09-03T15:07:26;31.80;86.40
23991;DHT22;12205;50.600;4.608;2022-09-03T15:10:17;31.50;86.10
23991;DHT22;12205;50.600;4.608;2022-09-03T15:13:00;30.50;88.00
23991;DHT22;12205;50.600;4.608;2022-09-03T15:15:58;29.80;90.20
23991;DHT22;12205;50.600;4.608;2022-09-03T15:18:49;29.10;91.50
23991;DHT22;12205;50.600;4.608;2022-09-03T15:21:47;28.80;92.20
23991;DHT22;12205;50.600;4.608;2022-09-03T15:24:37;28.00;96.60
23991;DHT22;12205;50.600;4.608;2022-09-03T15:27:33;27.50;99.20
23991;DHT22;12205;50.600;4.608;2022-09-03T15:30:15;26.90;99.90
23991;DHT22;12205;50.600;4.608;2022-09-03T15:33:03;26.70;99.90
23991;DHT22;12205;50.600;4.608;2022-09-03T15:35:50;26.50;99.90
23991;DHT22;12205;50.600;4.608;2022-09-03T15:38:38;26.60;99.90
23991;DHT22;12205;50.600;4.608;2022-09-03T15:41:20;26.20;99.90
23991;DHT22;12205;50.600;4.608;2022-09-03T15:44:08;26.20;99.90
23991;DHT22;12205;50.600;4.608;2022-09-03T15:46:48;27.20;99.90
23991;DHT22;12205;50.600;4.608;2022-09-03T15:49:28;28.40;99.90
23991;DHT22;12205;50.600;4.608;2022-09-03T15:52:09;29.10;99.90
23991;DHT22;12205;50.600;4.608;2022-09-03T15:54:58;29.00;99.90
23991;DHT22;12205;50.600;4.608;2022-09-03T15:57:36;30.10;99.90
23991;DHT22;12205;50.600;4.608;2022-09-03T16:00:16;30.70;99.90
23991;DHT22;12205;50.600;4.608;2022-09-03T16:02:48;30.50;99.90
23991;DHT22;12205;50.600;4.608;2022-09-03T16:05:24;30.20;99.90
23991;DHT22;12205;50.600;4.608;2022-09-03T16:08:08;30.00;99.90
23991;DHT22;12205;50.600;4.608;2022-09-03T16:10:57;29.70;99.90
23991;DHT22;12205;50.600;4.608;2022-09-03T16:13:42;29.30;99.90
23991;DHT22;12205;50.600;4.608;2022-09-03T16:16:21;28.80;99.90
23991;DHT22;12205;50.600;4.608;2022-09-03T16:19:00;28.40;99.90
23991;DHT22;12205;50.600;4.608;2022-09-03T16:21:37;28.10;99.90
23991;DHT22;12205;50.600;4.608;2022-09-03T16:24:16;27.90;99.90
23991;DHT22;12205;50.600;4.608;2022-09-03T16:26:50;27.60;99.90
23991;DHT22;12205;50.600;4.608;2022-09-03T16:29:25;27.30;99.90
23991;DHT22;12205;50.600;4.608;2022-09-03T16:35:02;27.00;99.90
23991;DHT22;12205;50.600;4.608;2022-09-03T16:37:50;27.00;99.90
23991;DHT22;12205;50.600;4.608;2022-09-03T16:40:35;26.80;99.90
23991;DHT22;12205;50.600;4.608;2022-09-03T16:43:15;26.80;99.90
23991;DHT22;12205;50.600;4.608;2022-09-03T16:45:57;26.80;99.90
23991;DHT22;12205;50.600;4.608;2022-09-03T16:48:35;26.80;99.90
23991;DHT22;12205;50.600;4.608;2022-09-03T16:51:12;27.20;99.90
23991;DHT22;12205;50.600;4.608;2022-09-03T16:54:12;27.80;99.90
23991;DHT22;12205;50.600;4.608;2022-09-03T16:56:58;28.00;99.90
23991;DHT22;12205;50.600;4.608;2022-09-03T17:00:03;28.20;99.90
23991;DHT22;12205;50.600;4.608;2022-09-03T17:02:38;28.50;99.90